sensor_id;sensor_type;location;lat;lon;timestamp;P1;durP1;ratioP1;P2;durP2;ratioP2
38693;SDS011;24447;43.460;25.744;2023-12-29T00:01:58;20.60;;;7.55;;
38693;SDS011;24447;43.460;25.744;2023-12-29T00:04:25;18.38;;;8.23;;
38693;SDS011;24447;43.460;25.744;2023-12-29T00:06:51;19.85;;;6.20;;
38693;SDS011;24447;43.460;25.744;2023-12-29T00:09:17;19.67;;;7.10;;
38693;SDS011;24447;43.460;25.744;2023-12-29T00:11:49;20.23;;;6.30;;
38693;SDS011;24447;43.460;25.744;2023-12-29T00:14:15;23.13;;;6.25;;
38693;SDS011;24447;43.460;25.744;2023-12-29T00:16:41;26.10;;;7.47;;
38693;SDS011;24447;43.460;25.744;2023-12-29T00:19:09;19.85;;;6.07;;
38693;SDS011;24447;43.460;25.744;2023-12-29T00:21:35;28.48;;;9.70;;
38693;SDS011;24447;43.460;25.744;2023-12-29T00:24:01;18.80;;;6.60;;
38693;SDS011;24447;43.460;25.744;2023-12-29T00:26:27;23.48;;;6.65;;
38693;SDS011;24447;43.460;25.744;2023-12-29T00:28:54;24.05;;;6.63;;
38693;SDS011;24447;43.460;25.744;2023-12-29T00:31:20;24.83;;;7.90;;
38693;SDS011;24447;43.460;25.744;2023-12-29T00:33:46;35.92;;;9.95;;
38693;SDS011;24447;43.460;25.744;2023-12-29T00:36:15;29.20;;;7.93;;
38693;SDS011;24447;43.460;25.744;2023-12-29T00:38:41;27.75;;;9.00;;
38693;SDS011;24447;43.460;25.744;2023-12-29T00:41:07;27.08;;;9.52;;
38693;SDS011;24447;43.460;25.744;2023-12-29T00:43:34;21.23;;;6.15;;
38693;SDS011;24447;43.460;25.744;2023-12-29T00:46:03;26.67;;;8.48;;
38693;SDS011;24447;43.460;25.744;2023-12-29T00:48:30;30.63;;;10.35;;
38693;SDS011;24447;43.460;25.744;2023-12-29T00:50:56;24.95;;;7.30;;
38693;SDS011;24447;43.460;25.744;2023-12-29T00:53:22;22.88;;;7.00;;
38693;SDS011;24447;43.460;25.744;2023-12-29T00:55:48;18.45;;;6.05;;
38693;SDS011;24447;43.460;25.744;2023-12-29T00:58:14;23.63;;;8.85;;
38693;SDS011;24447;43.460;25.744;2023-12-29T01:00:40;27.08;;;7.78;;
38693;SDS011;24447;43.460;25.744;2023-12-29T01:03:06;24.10;;;8.32;;
38693;SDS011;24447;43.460;25.744;2023-12-29T01:05:32;48.25;;;14.75;;
38693;SDS011;24447;43.460;25.744;2023-12-29T01:07:57;39.13;;;12.73;;
38693;SDS011;24447;43.460;25.744;2023-12-29T01:10:23;34.28;;;10.73;;
38693;SDS011;24447;43.460;25.744;2023-12-29T01:12:49;24.35;;;7.72;;
38693;SDS011;24447;43.460;25.744;2023-12-29T01:15:15;23.40;;;7.68;;
38693;SDS011;24447;43.460;25.744;2023-12-29T01:17:42;22.83;;;8.38;;
38693;SDS011;24447;43.460;25.744;2023-12-29T01:20:08;31.15;;;11.38;;
38693;SDS011;24447;43.460;25.744;2023-12-29T01:22:34;29.67;;;9.00;;
38693;SDS011;24447;43.460;25.744;2023-12-29T01:25:00;23.10;;;8.25;;
38693;SDS011;24447;43.460;25.744;2023-12-29T01:27:26;43.97;;;14.63;;
38693;SDS011;24447;43.460;25.744;2023-12-29T01:29:52;31.95;;;9.02;;
38693;SDS011;24447;43.460;25.744;2023-12-29T01:32:19;23.27;;;7.07;;
38693;SDS011;24447;43.460;25.744;2023-12-29T01:34:45;26.67;;;7.95;;
38693;SDS011;24447;43.460;25.744;2023-12-29T01:37:11;12.98;;;5.32;;
38693;SDS011;24447;43.460;25.744;2023-12-29T01:39:36;22.10;;;8.10;;
38693;SDS011;24447;43.460;25.744;2023-12-29T01:42:03;23.08;;;6.55;;
38693;SDS011;24447;43.460;25.744;2023-12-29T01:44:29;21.13;;;6.93;;
38693;SDS011;24447;43.460;25.744;2023-12-29T01:46:55;20.38;;;7.50;;
38693;SDS011;24447;43.460;25.744;2023-12-29T01:49:22;23.67;;;9.38;;
38693;SDS011;24447;43.460;25.744;2023-12-29T01:51:50;22.83;;;8.55;;
38693;SDS011;24447;43.460;25.744;2023-12-29T01:54:17;20.55;;;7.53;;
38693;SDS011;24447;43.460;25.744;2023-12-29T01:56:44;15.75;;;5.15;;
38693;SDS011;24447;43.460;25.744;2023-12-29T01:59:10;25.52;;;7.30;;
38693;SDS011;24447;43.460;25.744;2023-12-29T02:01:37;15.20;;;5.88;;
38693;SDS011;24447;43.460;25.744;2023-12-29T02:04:06;23.45;;;6.28;;
38693;SDS011;24447;43.460;25.744;2023-12-29T02:06:33;21.80;;;6.60;;
38693;SDS011;24447;43.460;25.744;2023-12-29T02:09:01;17.52;;;6.30;;
38693;SDS011;24447;43.460;25.744;2023-12-29T02:11:28;20.30;;;6.20;;
38693;SDS011;24447;43.460;25.744;2023-12-29T02:13:55;24.80;;;7.13;;
38693;SDS011;24447;43.460;25.744;2023-12-29T02:16:33;31.60;;;9.30;;
38693;SDS011;24447;43.460;25.744;2023-12-29T02:19:04;40.83;;;10.18;;
38693;SDS011;24447;43.460;25.744;2023-12-29T02:21:39;43.13;;;12.40;;
38693;SDS011;24447;43.460;25.744;2023-12-29T02:24:05;30.15;;;10.75;;
38693;SDS011;24447;43.460;25.744;2023-12-29T02:26:31;27.15;;;8.13;;
38693;SDS011;24447;43.460;25.744;2023-12-29T02:28:59;24.48;;;8.32;;
38693;SDS011;24447;43.460;25.744;2023-12-29T02:31:28;29.98;;;9.73;;
38693;SDS011;24447;43.460;25.744;2023-12-29T02:33:55;27.40;;;9.88;;
38693;SDS011;24447;43.460;25.744;2023-12-29T02:36:22;24.48;;;7.18;;
38693;SDS011;24447;43.460;25.744;2023-12-29T02:38:48;31.83;;;10.38;;
38693;SDS011;24447;43.460;25.744;2023-12-29T02:41:14;22.10;;;9.40;;
38693;SDS011;24447;43.460;25.744;2023-12-29T02:43:40;28.55;;;8.73;;
38693;SDS011;24447;43.460;25.744;2023-12-29T02:46:06;29.13;;;8.82;;
38693;SDS011;24447;43.460;25.744;2023-12-29T02:48:32;27.27;;;7.72;;
38693;SDS011;24447;43.460;25.744;2023-12-29T02:50:57;24.95;;;8.02;;
38693;SDS011;24447;43.460;25.744;2023-12-29T02:53:23;55.15;;;11.77;;
38693;SDS011;24447;43.460;25.744;2023-12-29T02:55:49;21.90;;;7.53;;
38693;SDS011;24447;43.460;25.744;2023-12-29T02:58:15;23.25;;;7.88;;
38693;SDS011;24447;43.460;25.744;2023-12-29T03:00:41;25.77;;;7.75;;
38693;SDS011;24447;43.460;25.744;2023-12-29T03:03:07;22.15;;;6.30;;
38693;SDS011;24447;43.460;25.744;2023-12-29T03:05:33;21.40;;;6.30;;
38693;SDS011;24447;43.460;25.744;2023-12-29T03:07:58;29.02;;;8.85;;
38693;SDS011;24447;43.460;25.744;2023-12-29T03:10:24;21.25;;;7.00;;
38693;SDS011;24447;43.460;25.744;2023-12-29T03:12:50;22.05;;;7.30;;
38693;SDS011;24447;43.460;25.744;2023-12-29T03:15:16;29.75;;;9.02;;
38693;SDS011;24447;43.460;25.744;2023-12-29T03:17:42;22.88;;;8.32;;
38693;SDS011;24447;43.460;25.744;2023-12-29T03:20:08;29.70;;;8.02;;
38693;SDS011;24447;43.460;25.744;2023-12-29T03:22:34;26.40;;;8.02;;
38693;SDS011;24447;43.460;25.744;2023-12-29T03:25:00;27.30;;;8.20;;
38693;SDS011;24447;43.460;25.744;2023-12-29T03:27:26;26.45;;;7.30;;
38693;SDS011;24447;43.460;25.744;2023-12-29T03:29:52;20.88;;;7.95;;
38693;SDS011;24447;43.460;25.744;2023-12-29T03:32:17;24.75;;;8.23;;
38693;SDS011;24447;43.460;25.744;2023-12-29T03:34:44;27.58;;;9.55;;
38693;SDS011;24447;43.460;25.744;2023-12-29T03:37:10;36.55;;;10.57;;
38693;SDS011;24447;43.460;25.744;2023-12-29T03:39:35;20.65;;;7.68;;
38693;SDS011;24447;43.460;25.744;2023-12-29T03:42:01;22.15;;;8.55;;
38693;SDS011;24447;43.460;25.744;2023-12-29T03:44:27;36.50;;;11.40;;
38693;SDS011;24447;43.460;25.744;2023-12-29T03:46:53;37.92;;;14.50;;
38693;SDS011;24447;43.460;25.744;2023-12-29T03:49:19;43.65;;;15.68;;
38693;SDS011;24447;43.460;25.744;2023-12-29T03:51:45;46.60;;;14.73;;
38693;SDS011;24447;43.460;25.744;2023-12-29T03:54:11;37.70;;;15.60;;
38693;SDS011;24447;43.460;25.744;2023-12-29T03:56:37;44.13;;;13.32;;
38693;SDS011;24447;43.460;25.744;2023-12-29T03:59:03;40.53;;;12.07;;
38693;SDS011;24447;43.460;25.744;2023-12-29T04:01:29;42.42;;;14.80;;
38693;SDS011;24447;43.460;25.744;2023-12-29T04:03:59;34.25;;;12.48;;
38693;SDS011;24447;43.460;25.744;2023-12-29T04:06:25;35.55;;;10.27;;
38693;SDS011;24447;43.460;25.744;2023-12-29T04:08:51;25.17;;;8.85;;
38693;SDS011;24447;43.460;25.744;2023-12-29T04:11:17;40.67;;;14.25;;
38693;SDS011;24447;43.460;25.744;2023-12-29T04:13:42;43.45;;;15.30;;
38693;SDS011;24447;43.460;25.744;2023-12-29T04:16:08;35.85;;;12.02;;
38693;SDS011;24447;43.460;25.744;2023-12-29T04:18:34;39.95;;;13.55;;
38693;SDS011;24447;43.460;25.744;2023-12-29T04:21:00;41.15;;;12.75;;
38693;SDS011;24447;43.460;25.744;2023-12-29T04:23:26;48.33;;;14.93;;
38693;SDS011;24447;43.460;25.744;2023-12-29T04:25:52;51.95;;;15.63;;
38693;SDS011;24447;43.460;25.744;2023-12-29T04:28:18;58.47;;;20.10;;
38693;SDS011;24447;43.460;25.744;2023-12-29T04:30:44;78.68;;;31.02;;
38693;SDS011;24447;43.460;25.744;2023-12-29T04:33:10;48.92;;;18.80;;
38693;SDS011;24447;43.460;25.744;2023-12-29T04:35:36;30.70;;;10.52;;
38693;SDS011;24447;43.460;25.744;2023-12-29T04:38:02;28.13;;;9.32;;
38693;SDS011;24447;43.460;25.744;2023-12-29T04:40:27;25.30;;;8.63;;
38693;SDS011;24447;43.460;25.744;2023-12-29T04:42:53;28.55;;;9.43;;
38693;SDS011;24447;43.460;25.744;2023-12-29T04:45:19;32.92;;;13.15;;
38693;SDS011;24447;43.460;25.744;2023-12-29T04:47:45;20.90;;;8.00;;
38693;SDS011;24447;43.460;25.744;2023-12-29T04:50:11;30.83;;;10.82;;
38693;SDS011;24447;43.460;25.744;2023-12-29T04:52:37;20.15;;;7.03;;
38693;SDS011;24447;43.460;25.744;2023-12-29T04:55:03;20.58;;;7.60;;
38693;SDS011;24447;43.460;25.744;2023-12-29T04:57:29;19.95;;;7.47;;
38693;SDS011;24447;43.460;25.744;2023-12-29T04:59:55;24.33;;;7.25;;
38693;SDS011;24447;43.460;25.744;2023-12-29T05:02:21;22.40;;;6.47;;
38693;SDS011;24447;43.460;25.744;2023-12-29T05:04:47;22.33;;;8.70;;
38693;SDS011;24447;43.460;25.744;2023-12-29T05:07:13;23.42;;;7.57;;
38693;SDS011;24447;43.460;25.744;2023-12-29T05:09:39;18.38;;;6.35;;
38693;SDS011;24447;43.460;25.744;2023-12-29T05:12:05;25.75;;;9.88;;
38693;SDS011;24447;43.460;25.744;2023-12-29T05:14:31;27.67;;;8.85;;
38693;SDS011;24447;43.460;25.744;2023-12-29T05:16:56;24.83;;;8.35;;
38693;SDS011;24447;43.460;25.744;2023-12-29T05:19:22;20.05;;;8.77;;
38693;SDS011;24447;43.460;25.744;2023-12-29T05:21:51;31.70;;;10.70;;
38693;SDS011;24447;43.460;25.744;2023-12-29T05:24:19;26.65;;;12.60;;
38693;SDS011;24447;43.460;25.744;2023-12-29T05:26:45;33.72;;;11.98;;
38693;SDS011;24447;43.460;25.744;2023-12-29T05:29:10;33.70;;;12.75;;
38693;SDS011;24447;43.460;25.744;2023-12-29T05:31:36;26.23;;;8.82;;
38693;SDS011;24447;43.460;25.744;2023-12-29T05:34:02;24.42;;;9.57;;
38693;SDS011;24447;43.460;25.744;2023-12-29T05:36:28;32.75;;;9.70;;
38693;SDS011;24447;43.460;25.744;2023-12-29T05:38:55;26.55;;;9.15;;
38693;SDS011;24447;43.460;25.744;2023-12-29T05:41:21;26.88;;;11.15;;
38693;SDS011;24447;43.460;25.744;2023-12-29T05:43:47;29.77;;;10.55;;
38693;SDS011;24447;43.460;25.744;2023-12-29T05:46:13;28.17;;;10.63;;
38693;SDS011;24447;43.460;25.744;2023-12-29T05:48:39;24.05;;;9.02;;
38693;SDS011;24447;43.460;25.744;2023-12-29T05:51:06;36.67;;;10.32;;
38693;SDS011;24447;43.460;25.744;2023-12-29T05:53:36;23.02;;;9.85;;
38693;SDS011;24447;43.460;25.744;2023-12-29T05:56:02;33.00;;;11.80;;
38693;SDS011;24447;43.460;25.744;2023-12-29T05:58:29;42.17;;;13.82;;
38693;SDS011;24447;43.460;25.744;2023-12-29T06:00:55;28.90;;;10.85;;
38693;SDS011;24447;43.460;25.744;2023-12-29T06:03:21;29.80;;;9.77;;
38693;SDS011;24447;43.460;25.744;2023-12-29T06:05:47;23.73;;;9.68;;
38693;SDS011;24447;43.460;25.744;2023-12-29T06:08:14;28.92;;;9.75;;
38693;SDS011;24447;43.460;25.744;2023-12-29T06:10:40;29.23;;;12.35;;
38693;SDS011;24447;43.460;25.744;2023-12-29T06:13:06;40.78;;;12.27;;
38693;SDS011;24447;43.460;25.744;2023-12-29T06:15:31;32.67;;;11.25;;
38693;SDS011;24447;43.460;25.744;2023-12-29T06:17:57;33.78;;;11.70;;
38693;SDS011;24447;43.460;25.744;2023-12-29T06:20:23;29.60;;;10.35;;
38693;SDS011;24447;43.460;25.744;2023-12-29T06:22:49;30.67;;;11.27;;
38693;SDS011;24447;43.460;25.744;2023-12-29T06:25:16;27.23;;;9.07;;
38693;SDS011;24447;43.460;25.744;2023-12-29T06:27:42;33.58;;;10.13;;
38693;SDS011;24447;43.460;25.744;2023-12-29T06:30:08;37.33;;;9.27;;
38693;SDS011;24447;43.460;25.744;2023-12-29T06:32:36;29.23;;;8.70;;
38693;SDS011;24447;43.460;25.744;2023-12-29T06:35:02;29.65;;;8.20;;
38693;SDS011;24447;43.460;25.744;2023-12-29T06:37:28;24.27;;;8.00;;
38693;SDS011;24447;43.460;25.744;2023-12-29T06:39:54;24.25;;;7.10;;
38693;SDS011;24447;43.460;25.744;2023-12-29T06:42:20;24.90;;;9.98;;
38693;SDS011;24447;43.460;25.744;2023-12-29T06:44:46;27.70;;;9.02;;
38693;SDS011;24447;43.460;25.744;2023-12-29T06:47:12;18.95;;;6.90;;
38693;SDS011;24447;43.460;25.744;2023-12-29T06:49:38;20.25;;;8.57;;
38693;SDS011;24447;43.460;25.744;2023-12-29T06:52:04;29.85;;;9.65;;
38693;SDS011;24447;43.460;25.744;2023-12-29T06:54:31;24.02;;;7.45;;
38693;SDS011;24447;43.460;25.744;2023-12-29T06:56:57;21.50;;;7.57;;
38693;SDS011;24447;43.460;25.744;2023-12-29T06:59:23;24.27;;;10.15;;
38693;SDS011;24447;43.460;25.744;2023-12-29T07:01:48;37.95;;;9.30;;
38693;SDS011;24447;43.460;25.744;2023-12-29T07:04:14;23.60;;;8.02;;
38693;SDS011;24447;43.460;25.744;2023-12-29T07:06:40;22.98;;;8.20;;
38693;SDS011;24447;43.460;25.744;2023-12-29T07:09:07;23.25;;;7.32;;
38693;SDS011;24447;43.460;25.744;2023-12-29T07:11:33;20.20;;;8.50;;
38693;SDS011;24447;43.460;25.744;2023-12-29T07:14:00;22.02;;;8.52;;
38693;SDS011;24447;43.460;25.744;2023-12-29T07:16:26;18.38;;;8.10;;
38693;SDS011;24447;43.460;25.744;2023-12-29T07:18:52;44.75;;;17.27;;
38693;SDS011;24447;43.460;25.744;2023-12-29T07:21:18;51.80;;;18.60;;
38693;SDS011;24447;43.460;25.744;2023-12-29T07:23:44;50.88;;;20.13;;
38693;SDS011;24447;43.460;25.744;2023-12-29T07:26:09;59.30;;;23.92;;
38693;SDS011;24447;43.460;25.744;2023-12-29T07:28:36;68.97;;;20.70;;
38693;SDS011;24447;43.460;25.744;2023-12-29T07:31:01;47.70;;;18.90;;
38693;SDS011;24447;43.460;25.744;2023-12-29T07:33:27;32.05;;;13.13;;
38693;SDS011;24447;43.460;25.744;2023-12-29T07:35:54;36.13;;;14.55;;
38693;SDS011;24447;43.460;25.744;2023-12-29T07:38:20;34.03;;;13.13;;
38693;SDS011;24447;43.460;25.744;2023-12-29T07:40:46;33.75;;;11.75;;
38693;SDS011;24447;43.460;25.744;2023-12-29T07:43:13;30.40;;;10.63;;
38693;SDS011;24447;43.460;25.744;2023-12-29T07:45:39;36.72;;;13.65;;
38693;SDS011;24447;43.460;25.744;2023-12-29T07:48:05;38.72;;;16.33;;
38693;SDS011;24447;43.460;25.744;2023-12-29T07:50:31;40.92;;;17.33;;
38693;SDS011;24447;43.460;25.744;2023-12-29T07:52:58;42.50;;;16.30;;
38693;SDS011;24447;43.460;25.744;2023-12-29T07:55:27;42.03;;;18.55;;
38693;SDS011;24447;43.460;25.744;2023-12-29T07:57:54;44.00;;;19.75;;
38693;SDS011;24447;43.460;25.744;2023-12-29T08:00:19;55.25;;;25.55;;
38693;SDS011;24447;43.460;25.744;2023-12-29T08:02:47;68.07;;;29.95;;
38693;SDS011;24447;43.460;25.744;2023-12-29T08:05:13;68.47;;;26.77;;
38693;SDS011;24447;43.460;25.744;2023-12-29T08:07:40;57.38;;;24.35;;
38693;SDS011;24447;43.460;25.744;2023-12-29T08:10:06;60.53;;;25.98;;
38693;SDS011;24447;43.460;25.744;2023-12-29T08:12:33;56.13;;;25.75;;
38693;SDS011;24447;43.460;25.744;2023-12-29T08:14:59;58.03;;;25.17;;
38693;SDS011;24447;43.460;25.744;2023-12-29T08:17:26;59.58;;;25.23;;
38693;SDS011;24447;43.460;25.744;2023-12-29T08:19:52;48.20;;;21.38;;
38693;SDS011;24447;43.460;25.744;2023-12-29T08:22:19;46.38;;;21.80;;
38693;SDS011;24447;43.460;25.744;2023-12-29T08:24:45;54.00;;;22.02;;
38693;SDS011;24447;43.460;25.744;2023-12-29T08:27:14;36.67;;;18.55;;
38693;SDS011;24447;43.460;25.744;2023-12-29T08:29:40;43.83;;;19.10;;
38693;SDS011;24447;43.460;25.744;2023-12-29T08:32:06;43.25;;;21.13;;
38693;SDS011;24447;43.460;25.744;2023-12-29T08:34:32;33.33;;;15.38;;
38693;SDS011;24447;43.460;25.744;2023-12-29T08:37:03;32.60;;;16.73;;
38693;SDS011;24447;43.460;25.744;2023-12-29T08:39:29;33.17;;;13.80;;
38693;SDS011;24447;43.460;25.744;2023-12-29T08:41:55;46.45;;;18.52;;
38693;SDS011;24447;43.460;25.744;2023-12-29T08:44:21;44.80;;;18.67;;
38693;SDS011;24447;43.460;25.744;2023-12-29T08:46:46;33.22;;;15.82;;
38693;SDS011;24447;43.460;25.744;2023-12-29T08:49:12;38.63;;;18.20;;
38693;SDS011;24447;43.460;25.744;2023-12-29T08:51:38;43.60;;;18.52;;
38693;SDS011;24447;43.460;25.744;2023-12-29T08:54:04;41.63;;;18.00;;
38693;SDS011;24447;43.460;25.744;2023-12-29T08:56:30;41.90;;;18.98;;
38693;SDS011;24447;43.460;25.744;2023-12-29T08:58:56;40.85;;;19.70;;
38693;SDS011;24447;43.460;25.744;2023-12-29T09:01:22;38.17;;;18.15;;
38693;SDS011;24447;43.460;25.744;2023-12-29T09:03:48;36.50;;;18.15;;
38693;SDS011;24447;43.460;25.744;2023-12-29T09:06:14;37.08;;;18.92;;
38693;SDS011;24447;43.460;25.744;2023-12-29T09:08:40;42.22;;;19.10;;
38693;SDS011;24447;43.460;25.744;2023-12-29T09:11:06;32.83;;;16.55;;
38693;SDS011;24447;43.460;25.744;2023-12-29T09:13:32;44.22;;;17.15;;
38693;SDS011;24447;43.460;25.744;2023-12-29T09:15:58;32.45;;;16.55;;
38693;SDS011;24447;43.460;25.744;2023-12-29T09:18:24;56.47;;;18.05;;
38693;SDS011;24447;43.460;25.744;2023-12-29T09:20:51;34.45;;;15.07;;
38693;SDS011;24447;43.460;25.744;2023-12-29T09:23:17;29.95;;;14.52;;
38693;SDS011;24447;43.460;25.744;2023-12-29T09:25:43;35.28;;;15.18;;
38693;SDS011;24447;43.460;25.744;2023-12-29T09:28:09;31.50;;;14.15;;
38693;SDS011;24447;43.460;25.744;2023-12-29T09:30:34;34.97;;;13.32;;
38693;SDS011;24447;43.460;25.744;2023-12-29T09:33:00;37.05;;;14.63;;
38693;SDS011;24447;43.460;25.744;2023-12-29T09:35:26;27.98;;;11.10;;
38693;SDS011;24447;43.460;25.744;2023-12-29T09:37:52;26.52;;;10.43;;
38693;SDS011;24447;43.460;25.744;2023-12-29T09:40:18;22.15;;;9.48;;
38693;SDS011;24447;43.460;25.744;2023-12-29T09:42:44;29.33;;;13.35;;
38693;SDS011;24447;43.460;25.744;2023-12-29T09:45:11;28.02;;;13.07;;
38693;SDS011;24447;43.460;25.744;2023-12-29T09:47:41;32.55;;;12.60;;
38693;SDS011;24447;43.460;25.744;2023-12-29T09:50:12;21.30;;;9.48;;
38693;SDS011;24447;43.460;25.744;2023-12-29T09:52:38;17.97;;;7.47;;
38693;SDS011;24447;43.460;25.744;2023-12-29T09:55:07;19.95;;;8.65;;
38693;SDS011;24447;43.460;25.744;2023-12-29T09:57:35;16.88;;;7.88;;
38693;SDS011;24447;43.460;25.744;2023-12-29T10:00:02;22.23;;;7.47;;
38693;SDS011;24447;43.460;25.744;2023-12-29T10:02:29;22.73;;;8.23;;
38693;SDS011;24447;43.460;25.744;2023-12-29T10:04:56;18.17;;;7.60;;
38693;SDS011;24447;43.460;25.744;2023-12-29T10:07:25;19.85;;;7.93;;
38693;SDS011;24447;43.460;25.744;2023-12-29T10:09:55;21.25;;;8.88;;
38693;SDS011;24447;43.460;25.744;2023-12-29T10:12:23;20.63;;;7.90;;
38693;SDS011;24447;43.460;25.744;2023-12-29T10:17:41;34.80;;;14.48;;
38693;SDS011;24447;43.460;25.744;2023-12-29T10:20:34;37.25;;;15.55;;
38693;SDS011;24447;43.460;25.744;2023-12-29T10:23:47;25.83;;;8.90;;
38693;SDS011;24447;43.460;25.744;2023-12-29T10:26:02;27.23;;;9.15;;
38693;SDS011;24447;43.460;25.744;2023-12-29T10:28:28;17.60;;;7.65;;
38693;SDS011;24447;43.460;25.744;2023-12-29T10:30:54;18.00;;;5.38;;
38693;SDS011;24447;43.460;25.744;2023-12-29T10:33:21;22.88;;;5.07;;
38693;SDS011;24447;43.460;25.744;2023-12-29T10:35:58;16.55;;;6.15;;
38693;SDS011;24447;43.460;25.744;2023-12-29T10:38:30;15.98;;;6.95;;
38693;SDS011;24447;43.460;25.744;2023-12-29T10:41:15;17.15;;;5.93;;
38693;SDS011;24447;43.460;25.744;2023-12-29T10:43:43;15.00;;;4.53;;
38693;SDS011;24447;43.460;25.744;2023-12-29T10:46:11;14.30;;;5.20;;
38693;SDS011;24447;43.460;25.744;2023-12-29T10:48:37;14.40;;;4.93;;
38693;SDS011;24447;43.460;25.744;2023-12-29T10:51:04;13.15;;;3.97;;
38693;SDS011;24447;43.460;25.744;2023-12-29T10:53:34;14.68;;;5.28;;
38693;SDS011;24447;43.460;25.744;2023-12-29T10:56:00;16.15;;;5.47;;
38693;SDS011;24447;43.460;25.744;2023-12-29T10:58:27;12.05;;;4.40;;
38693;SDS011;24447;43.460;25.744;2023-12-29T11:00:56;21.88;;;6.35;;
38693;SDS011;24447;43.460;25.744;2023-12-29T11:03:22;11.45;;;4.28;;
38693;SDS011;24447;43.460;25.744;2023-12-29T11:06:01;15.40;;;6.03;;
38693;SDS011;24447;43.460;25.744;2023-12-29T11:08:27;15.07;;;6.25;;
38693;SDS011;24447;43.460;25.744;2023-12-29T11:10:52;13.20;;;5.18;;
38693;SDS011;24447;43.460;25.744;2023-12-29T11:13:20;10.38;;;4.53;;
38693;SDS011;24447;43.460;25.744;2023-12-29T11:15:46;12.68;;;5.25;;
38693;SDS011;24447;43.460;25.744;2023-12-29T11:18:16;10.95;;;5.70;;
38693;SDS011;24447;43.460;25.744;2023-12-29T11:20:43;12.57;;;4.28;;
38693;SDS011;24447;43.460;25.744;2023-12-29T11:23:10;7.90;;;3.33;;
38693;SDS011;24447;43.460;25.744;2023-12-29T11:25:40;7.70;;;3.38;;
38693;SDS011;24447;43.460;25.744;2023-12-29T11:28:10;11.35;;;4.18;;
38693;SDS011;24447;43.460;25.744;2023-12-29T11:30:40;9.10;;;4.37;;
38693;SDS011;24447;43.460;25.744;2023-12-29T11:33:14;8.57;;;4.22;;
38693;SDS011;24447;43.460;25.744;2023-12-29T11:36:04;13.05;;;4.82;;
38693;SDS011;24447;43.460;25.744;2023-12-29T11:41:31;12.82;;;3.67;;
38693;SDS011;24447;43.460;25.744;2023-12-29T11:44:02;12.88;;;4.47;;
38693;SDS011;24447;43.460;25.744;2023-12-29T11:46:35;12.90;;;3.97;;
38693;SDS011;24447;43.460;25.744;2023-12-29T11:49:03;8.40;;;3.75;;
38693;SDS011;24447;43.460;25.744;2023-12-29T11:53:59;10.60;;;3.95;;
38693;SDS011;24447;43.460;25.744;2023-12-29T11:56:38;11.80;;;4.88;;
38693;SDS011;24447;43.460;25.744;2023-12-29T11:59:24;13.82;;;5.78;;
38693;SDS011;24447;43.460;25.744;2023-12-29T12:04:39;16.20;;;5.75;;
38693;SDS011;24447;43.460;25.744;2023-12-29T12:12:56;19.35;;;7.85;;
38693;SDS011;24447;43.460;25.744;2023-12-29T12:17:49;14.70;;;5.55;;
38693;SDS011;24447;43.460;25.744;2023-12-29T12:20:15;12.52;;;4.90;;
38693;SDS011;24447;43.460;25.744;2023-12-29T12:22:41;15.30;;;5.95;;
38693;SDS011;24447;43.460;25.744;2023-12-29T12:25:11;10.25;;;4.78;;
38693;SDS011;24447;43.460;25.744;2023-12-29T12:27:38;6.38;;;3.60;;
38693;SDS011;24447;43.460;25.744;2023-12-29T12:30:04;8.95;;;4.40;;
38693;SDS011;24447;43.460;25.744;2023-12-29T12:32:30;8.00;;;4.20;;
38693;SDS011;24447;43.460;25.744;2023-12-29T12:34:57;10.75;;;4.45;;
38693;SDS011;24447;43.460;25.744;2023-12-29T12:37:24;10.07;;;4.43;;
38693;SDS011;24447;43.460;25.744;2023-12-29T12:39:52;10.23;;;3.65;;
38693;SDS011;24447;43.460;25.744;2023-12-29T12:42:18;7.30;;;3.50;;
38693;SDS011;24447;43.460;25.744;2023-12-29T12:44:55;6.88;;;3.30;;
38693;SDS011;24447;43.460;25.744;2023-12-29T12:47:24;5.03;;;2.92;;
38693;SDS011;24447;43.460;25.744;2023-12-29T12:52:19;94.90;;;32.63;;
38693;SDS011;24447;43.460;25.744;2023-12-29T12:54:45;12.90;;;5.40;;
38693;SDS011;24447;43.460;25.744;2023-12-29T12:57:12;10.40;;;4.85;;
38693;SDS011;24447;43.460;25.744;2023-12-29T12:59:38;12.80;;;5.53;;
38693;SDS011;24447;43.460;25.744;2023-12-29T13:02:04;17.27;;;5.40;;
38693;SDS011;24447;43.460;25.744;2023-12-29T13:04:31;16.02;;;5.93;;
38693;SDS011;24447;43.460;25.744;2023-12-29T13:06:57;20.42;;;7.68;;
38693;SDS011;24447;43.460;25.744;2023-12-29T13:09:23;22.17;;;10.02;;
38693;SDS011;24447;43.460;25.744;2023-12-29T13:11:49;21.55;;;9.23;;
38693;SDS011;24447;43.460;25.744;2023-12-29T13:14:22;17.60;;;6.45;;
38693;SDS011;24447;43.460;25.744;2023-12-29T13:16:48;17.48;;;7.30;;
38693;SDS011;24447;43.460;25.744;2023-12-29T13:19:21;13.75;;;5.43;;
38693;SDS011;24447;43.460;25.744;2023-12-29T13:21:52;14.38;;;4.72;;
38693;SDS011;24447;43.460;25.744;2023-12-29T13:24:20;12.27;;;4.88;;
38693;SDS011;24447;43.460;25.744;2023-12-29T13:27:12;12.15;;;4.93;;
38693;SDS011;24447;43.460;25.744;2023-12-29T13:29:39;15.23;;;5.70;;
38693;SDS011;24447;43.460;25.744;2023-12-29T13:32:10;10.63;;;4.65;;
38693;SDS011;24447;43.460;25.744;2023-12-29T13:34:48;19.02;;;7.72;;
38693;SDS011;24447;43.460;25.744;2023-12-29T13:43:02;20.73;;;7.32;;
38693;SDS011;24447;43.460;25.744;2023-12-29T13:45:29;18.33;;;7.10;;
38693;SDS011;24447;43.460;25.744;2023-12-29T13:47:55;18.15;;;7.00;;
38693;SDS011;24447;43.460;25.744;2023-12-29T13:50:22;20.10;;;7.35;;
38693;SDS011;24447;43.460;25.744;2023-12-29T13:52:48;15.63;;;6.97;;
38693;SDS011;24447;43.460;25.744;2023-12-29T13:55:22;16.23;;;6.18;;
38693;SDS011;24447;43.460;25.744;2023-12-29T13:57:48;17.13;;;7.30;;
38693;SDS011;24447;43.460;25.744;2023-12-29T14:00:15;22.27;;;8.60;;
38693;SDS011;24447;43.460;25.744;2023-12-29T14:08:32;23.67;;;9.63;;
38693;SDS011;24447;43.460;25.744;2023-12-29T14:11:06;27.30;;;9.77;;
38693;SDS011;24447;43.460;25.744;2023-12-29T14:13:35;34.70;;;12.65;;
38693;SDS011;24447;43.460;25.744;2023-12-29T14:21:01;18.40;;;7.68;;
38693;SDS011;24447;43.460;25.744;2023-12-29T14:23:27;26.65;;;8.32;;
38693;SDS011;24447;43.460;25.744;2023-12-29T14:25:52;30.23;;;11.43;;
38693;SDS011;24447;43.460;25.744;2023-12-29T14:28:28;22.75;;;8.27;;
38693;SDS011;24447;43.460;25.744;2023-12-29T14:31:00;34.47;;;14.10;;
38693;SDS011;24447;43.460;25.744;2023-12-29T14:33:27;29.67;;;12.05;;
38693;SDS011;24447;43.460;25.744;2023-12-29T14:35:53;33.35;;;11.38;;
38693;SDS011;24447;43.460;25.744;2023-12-29T14:38:19;32.00;;;11.68;;
38693;SDS011;24447;43.460;25.744;2023-12-29T14:40:45;39.90;;;19.98;;
38693;SDS011;24447;43.460;25.744;2023-12-29T14:43:11;45.75;;;20.25;;
38693;SDS011;24447;43.460;25.744;2023-12-29T14:45:37;33.75;;;14.30;;
38693;SDS011;24447;43.460;25.744;2023-12-29T14:48:03;33.03;;;12.73;;
38693;SDS011;24447;43.460;25.744;2023-12-29T14:50:29;22.83;;;10.48;;
38693;SDS011;24447;43.460;25.744;2023-12-29T14:52:55;20.70;;;8.30;;
38693;SDS011;24447;43.460;25.744;2023-12-29T14:55:21;19.08;;;8.40;;